Wetterdaten: Woche 01.03.10 - 07.03.10 (KW9)
Datum Zeit Temperatur Luftfeuchte Luftdruck Niederschlag Windrichtung Wind
01.03.2010 00:00 5,7 C 66 % 1004,4 hPa 0,0 l/m W-SW 28,5 km/h (4 Bft)
01.03.2010 01:00 5,5 C 65 % 1005,0 hPa 0,0 l/m W-SW 30,8 km/h (5 Bft)
01.03.2010 02:00 5,0 C 68 % 1005,6 hPa 0,0 l/m W-SW 27,2 km/h (4 Bft)
01.03.2010 03:00 4,3 C 69 % 1006,4 hPa 0,0 l/m W 17,8 km/h (3 Bft)
01.03.2010 04:00 3,6 C 71 % 1007,1 hPa 0,0 l/m W-SW 14,0 km/h (3 Bft)
01.03.2010 05:00 2,5 C 77 % 1008,0 hPa 0,0 l/m SW 7,6 km/h (2 Bft)
01.03.2010 06:00 1,3 C 86 % 1008,6 hPa 0,0 l/m SW 7,2 km/h (2 Bft)
01.03.2010 07:00 1,2 C 88 % 1009,2 hPa 0,0 l/m W-SW 11,4 km/h (2 Bft)
01.03.2010 08:00 2,6 C 83 % 1009,9 hPa 0,0 l/m SW 15,8 km/h (3 Bft)
01.03.2010 09:00 4,8 C 73 % 1010,3 hPa 0,0 l/m W-SW 23,6 km/h (4 Bft)
01.03.2010 10:00 6,3 C 67 % 1010,5 hPa 0,0 l/m SW 26,6 km/h (4 Bft)
01.03.2010 11:00 7,6 C 60 % 1010,6 hPa 0,0 l/m SW 27,4 km/h (4 Bft)
01.03.2010 12:00 8,7 C 54 % 1010,2 hPa 0,0 l/m W-SW 25,1 km/h (4 Bft)
01.03.2010 13:00 9,6 C 49 % 1009,7 hPa 0,0 l/m SW 25,1 km/h (4 Bft)
01.03.2010 14:00 10,0 C 46 % 1009,4 hPa 0,0 l/m W 20,0 km/h (4 Bft)
01.03.2010 15:00 10,2 C 42 % 1009,4 hPa 0,0 l/m W-SW 12,6 km/h (3 Bft)
01.03.2010 16:00 10,2 C 40 % 1009,8 hPa 0,0 l/m W-SW 10,5 km/h (2 Bft)
01.03.2010 17:00 8,8 C 44 % 1010,3 hPa 0,0 l/m W 6,1 km/h (2 Bft)
01.03.2010 18:00 5,7 C 59 % 1011,1 hPa 0,0 l/m N 2,4 km/h (1 Bft)
01.03.2010 19:00 3,8 C 65 % 1012,2 hPa 0,0 l/m W 1,1 km/h (0 Bft)
01.03.2010 20:00 2,8 C 68 % 1013,1 hPa 0,0 l/m W 2,3 km/h (1 Bft)
01.03.2010 21:00 2,6 C 70 % 1013,8 hPa 0,0 l/m NW 1,5 km/h (1 Bft)
01.03.2010 22:00 2,1 C 74 % 1014,4 hPa 0,0 l/m N 0,7 km/h (0 Bft)
01.03.2010 23:00 1,2 C 78 % 1014,8 hPa 0,0 l/m N 1,2 km/h (1 Bft)
02.03.2010 00:00 0,9 C 80 % 1015,3 hPa 0,0 l/m N 0,0 km/h (0 Bft)
02.03.2010 01:00 0,9 C 81 % 1015,8 hPa 0,0 l/m N 0,0 km/h (0 Bft)
02.03.2010 02:00 0,8 C 83 % 1016,1 hPa 0,0 l/m N 0,0 km/h (0 Bft)
02.03.2010 03:00 0,6 C 84 % 1016,4 hPa 0,0 l/m N 0,1 km/h (0 Bft)
02.03.2010 04:00 0,6 C 85 % 1016,9 hPa 0,0 l/m N 0,0 km/h (0 Bft)
02.03.2010 05:00 0,3 C 88 % 1017,2 hPa 0,0 l/m W 3,5 km/h (1 Bft)
02.03.2010 06:00 0,5 C 87 % 1017,4 hPa 0,0 l/m W-NW 2,0 km/h (1 Bft)
02.03.2010 07:00 1,1 C 86 % 1017,8 hPa 0,0 l/m W-NW 1,1 km/h (0 Bft)
02.03.2010 08:00 1,3 C 89 % 1018,8 hPa 0,2 l/m W-NW 3,3 km/h (1 Bft)
02.03.2010 09:00 1,5 C 94 % 1019,3 hPa 0,4 l/m SW 7,1 km/h (2 Bft)
02.03.2010 10:00 2,7 C 95 % 1019,5 hPa 0,0 l/m SW 16,2 km/h (3 Bft)
02.03.2010 11:00 3,9 C 93 % 1019,8 hPa 0,6 l/m W 10,9 km/h (2 Bft)
02.03.2010 12:00 4,6 C 92 % 1019,7 hPa 0,6 l/m W-SW 13,6 km/h (3 Bft)
02.03.2010 13:00 4,9 C 91 % 1019,5 hPa 0,2 l/m W-SW 20,9 km/h (4 Bft)
02.03.2010 14:00 5,4 C 89 % 1020,0 hPa 0,0 l/m W 21,2 km/h (4 Bft)
02.03.2010 15:00 5,8 C 86 % 1020,3 hPa 0,0 l/m W-SW 18,1 km/h (3 Bft)
02.03.2010 16:00 5,9 C 85 % 1020,4 hPa 0,0 l/m W-SW 17,2 km/h (3 Bft)
02.03.2010 17:00 5,7 C 86 % 1021,0 hPa 0,0 l/m W 10,7 km/h (2 Bft)
02.03.2010 18:00 4,1 C 88 % 1022,3 hPa 0,8 l/m N-NO 14,1 km/h (3 Bft)
02.03.2010 19:00 1,8 C 94 % 1023,1 hPa 1,4 l/m N 4,3 km/h (1 Bft)
02.03.2010 20:00 1,6 C 95 % 1023,6 hPa 0,0 l/m NO 2,9 km/h (1 Bft)
02.03.2010 21:00 1,2 C 96 % 1023,9 hPa 0,0 l/m N 1,7 km/h (1 Bft)
02.03.2010 22:00 1,0 C 97 % 1024,1 hPa 0,0 l/m S-SO 1,7 km/h (1 Bft)
02.03.2010 23:00 0,6 C 97 % 1024,0 hPa 0,0 l/m N 0,0 km/h (0 Bft)
03.03.2010 00:00 -0,2 C 97 % 1024,0 hPa 0,0 l/m N 0,0 km/h (0 Bft)
03.03.2010 01:00 -0,3 C 97 % 1024,0 hPa 0,0 l/m N 1,3 km/h (1 Bft)
03.03.2010 02:00 -0,8 C 97 % 1023,8 hPa 0,0 l/m O 2,0 km/h (1 Bft)
03.03.2010 03:00 -1,6 C 97 % 1023,3 hPa 0,0 l/m O-NO 4,5 km/h (1 Bft)
03.03.2010 04:00 -2,2 C 96 % 1022,9 hPa 0,0 l/m NO 3,7 km/h (1 Bft)
03.03.2010 05:00 -2,7 C 96 % 1022,7 hPa 0,0 l/m N-NW 3,5 km/h (1 Bft)
03.03.2010 06:00 -3,1 C 96 % 1022,2 hPa 0,0 l/m N-NW 3,6 km/h (1 Bft)
03.03.2010 07:00 -3,4 C 96 % 1022,0 hPa 0,0 l/m N-NW 4,9 km/h (1 Bft)
03.03.2010 08:00 -2,3 C 97 % 1021,8 hPa 0,0 l/m NO 7,5 km/h (2 Bft)
03.03.2010 09:00 -0,4 C 95 % 1021,2 hPa 0,2 l/m NO 14,4 km/h (3 Bft)
03.03.2010 10:00 1,8 C 85 % 1020,6 hPa 0,0 l/m O-NO 17,2 km/h (3 Bft)
03.03.2010 11:00 3,1 C 74 % 1019,8 hPa 0,0 l/m O 21,4 km/h (4 Bft)
03.03.2010 12:00 4,2 C 69 % 1018,8 hPa 0,0 l/m NO 22,6 km/h (4 Bft)
03.03.2010 13:00 4,6 C 62 % 1017,2 hPa 0,0 l/m O 27,5 km/h (4 Bft)
03.03.2010 14:00 4,7 C 63 % 1016,5 hPa 0,0 l/m O 27,8 km/h (4 Bft)
03.03.2010 15:00 4,3 C 60 % 1015,7 hPa 0,0 l/m O-NO 28,8 km/h (5 Bft)
03.03.2010 16:00 3,8 C 61 % 1014,6 hPa 0,0 l/m NO 27,4 km/h (4 Bft)
03.03.2010 17:00 3,3 C 62 % 1013,9 hPa 0,0 l/m NO 25,5 km/h (4 Bft)
03.03.2010 18:00 2,6 C 72 % 1013,7 hPa 0,0 l/m O-NO 24,1 km/h (4 Bft)
03.03.2010 19:00 1,9 C 75 % 1013,4 hPa 0,0 l/m O-NO 24,8 km/h (4 Bft)
03.03.2010 20:00 1,3 C 78 % 1012,9 hPa 0,0 l/m O-NO 20,5 km/h (4 Bft)
03.03.2010 21:00 0,8 C 80 % 1012,8 hPa 0,0 l/m O-NO 17,0 km/h (3 Bft)
03.03.2010 22:00 0,6 C 78 % 1012,5 hPa 0,0 l/m O-NO 19,6 km/h (3 Bft)
03.03.2010 23:00 0,4 C 77 % 1011,9 hPa 0,0 l/m NO 20,1 km/h (4 Bft)
04.03.2010 00:00 0,3 C 74 % 1011,2 hPa 0,0 l/m NO 21,4 km/h (4 Bft)
04.03.2010 01:00 0,3 C 75 % 1010,6 hPa 0,0 l/m NO 19,8 km/h (4 Bft)
04.03.2010 02:00 0,0 C 76 % 1010,0 hPa 0,0 l/m O-NO 18,9 km/h (3 Bft)
04.03.2010 03:00 -0,2 C 79 % 1009,4 hPa 0,0 l/m O-NO 16,8 km/h (3 Bft)
04.03.2010 04:00 -0,4 C 81 % 1009,2 hPa 0,0 l/m O-NO 21,1 km/h (4 Bft)
04.03.2010 05:00 -0,6 C 80 % 1009,2 hPa 0,0 l/m NO 19,3 km/h (3 Bft)
04.03.2010 06:00 -0,9 C 78 % 1009,3 hPa 0,0 l/m O-NO 18,6 km/h (3 Bft)
04.03.2010 07:00 -1,0 C 75 % 1009,7 hPa 0,0 l/m NO 18,5 km/h (3 Bft)
04.03.2010 08:00 -0,8 C 72 % 1010,2 hPa 0,0 l/m O-NO 19,0 km/h (3 Bft)
04.03.2010 09:00 -0,2 C 69 % 1010,8 hPa 0,0 l/m O-NO 21,8 km/h (4 Bft)
04.03.2010 10:00 1,0 C 65 % 1011,3 hPa 0,0 l/m O-NO 22,2 km/h (4 Bft)
04.03.2010 11:00 2,1 C 61 % 1011,5 hPa 0,0 l/m N-NO 23,2 km/h (4 Bft)
04.03.2010 12:00 3,0 C 59 % 1011,6 hPa 0,0 l/m NO 20,5 km/h (4 Bft)
04.03.2010 13:00 3,6 C 57 % 1011,6 hPa 0,0 l/m NO 22,1 km/h (4 Bft)
04.03.2010 14:00 3,5 C 55 % 1012,2 hPa 0,0 l/m N-NO 23,6 km/h (4 Bft)
04.03.2010 15:00 3,6 C 53 % 1012,7 hPa 0,0 l/m O-NO 20,6 km/h (4 Bft)
04.03.2010 16:00 3,4 C 55 % 1013,3 hPa 0,0 l/m NO 17,4 km/h (3 Bft)
04.03.2010 17:00 2,8 C 58 % 1014,4 hPa 0,0 l/m O-NO 16,5 km/h (3 Bft)
04.03.2010 18:00 2,0 C 60 % 1015,7 hPa 0,0 l/m NO 18,6 km/h (3 Bft)
04.03.2010 19:00 1,1 C 62 % 1016,6 hPa 0,0 l/m N-NO 20,0 km/h (4 Bft)
04.03.2010 20:00 0,5 C 63 % 1017,4 hPa 0,0 l/m NO 14,5 km/h (3 Bft)
04.03.2010 21:00 -0,2 C 59 % 1018,1 hPa 0,0 l/m NO 12,2 km/h (2 Bft)
04.03.2010 22:00 -0,5 C 61 % 1018,6 hPa 0,0 l/m O-NO 6,3 km/h (2 Bft)
04.03.2010 23:00 -0,9 C 65 % 1018,9 hPa 0,0 l/m N-NO 12,1 km/h (2 Bft)
05.03.2010 00:00 -1,4 C 64 % 1019,5 hPa 0,0 l/m N-NO 13,8 km/h (3 Bft)
05.03.2010 01:00 -2,1 C 66 % 1019,9 hPa 0,0 l/m N 5,3 km/h (1 Bft)
05.03.2010 02:00 -3,0 C 70 % 1020,1 hPa 0,0 l/m N 4,3 km/h (1 Bft)
05.03.2010 03:00 -3,7 C 71 % 1020,2 hPa 0,0 l/m N-NW 4,5 km/h (1 Bft)
05.03.2010 04:00 -4,0 C 73 % 1020,6 hPa 0,0 l/m N-NW 2,8 km/h (1 Bft)
05.03.2010 05:00 -4,2 C 77 % 1020,9 hPa 0,0 l/m N-NW 3,5 km/h (1 Bft)
05.03.2010 06:00 -3,7 C 78 % 1021,3 hPa 0,0 l/m N-NW 6,3 km/h (2 Bft)
05.03.2010 07:00 -3,9 C 81 % 1021,9 hPa 0,0 l/m N-NW 3,7 km/h (1 Bft)
05.03.2010 08:00 -3,6 C 80 % 1022,5 hPa 0,0 l/m N-NW 7,9 km/h (2 Bft)
05.03.2010 09:00 -1,9 C 66 % 1022,8 hPa 0,0 l/m N-NO 14,4 km/h (3 Bft)
05.03.2010 10:00 -0,7 C 52 % 1023,0 hPa 0,0 l/m N-NO 16,2 km/h (3 Bft)
05.03.2010 11:00 -0,8 C 51 % 1023,5 hPa 0,0 l/m N 13,8 km/h (3 Bft)
05.03.2010 12:00 -0,3 C 48 % 1023,6 hPa 0,0 l/m N 18,4 km/h (3 Bft)
05.03.2010 13:00 -0,2 C 45 % 1023,4 hPa 0,0 l/m N-NW 17,0 km/h (3 Bft)
05.03.2010 14:00 -0,1 C 45 % 1023,2 hPa 0,0 l/m W-NW 17,6 km/h (3 Bft)
05.03.2010 15:00 0,4 C 41 % 1023,1 hPa 0,0 l/m N-NW 16,6 km/h (3 Bft)
05.03.2010 16:00 0,4 C 40 % 1023,1 hPa 0,0 l/m N 16,4 km/h (3 Bft)
05.03.2010 17:00 -0,5 C 42 % 1023,4 hPa 0,0 l/m N-NO 13,4 km/h (3 Bft)
05.03.2010 18:00 -1,6 C 45 % 1023,9 hPa 0,0 l/m N-NW 7,0 km/h (2 Bft)
05.03.2010 19:00 -2,8 C 54 % 1024,2 hPa 0,0 l/m N 1,9 km/h (1 Bft)
05.03.2010 20:00 -3,3 C 54 % 1024,0 hPa 0,0 l/m W 5,6 km/h (1 Bft)
05.03.2010 21:00 -3,6 C 55 % 1023,7 hPa 0,0 l/m W 5,9 km/h (2 Bft)
05.03.2010 22:00 -3,4 C 53 % 1023,1 hPa 0,0 l/m W 7,9 km/h (2 Bft)
05.03.2010 23:00 -3,3 C 54 % 1022,5 hPa 0,0 l/m W-SW 16,0 km/h (3 Bft)
06.03.2010 00:00 -3,1 C 56 % 1021,6 hPa 0,0 l/m SW 18,4 km/h (3 Bft)
06.03.2010 01:00 -2,8 C 57 % 1020,4 hPa 0,0 l/m SW 21,3 km/h (4 Bft)
06.03.2010 02:00 -2,4 C 55 % 1019,1 hPa 0,0 l/m W-SW 26,7 km/h (4 Bft)
06.03.2010 03:00 -2,3 C 58 % 1017,5 hPa 0,0 l/m W-SW 28,7 km/h (4 Bft)
06.03.2010 04:00 -2,2 C 60 % 1016,0 hPa 0,0 l/m W-SW 36,2 km/h (5 Bft)
06.03.2010 05:00 -2,1 C 61 % 1015,0 hPa 0,0 l/m W-SW 40,0 km/h (6 Bft)
06.03.2010 06:00 -2,8 C 77 % 1014,3 hPa 0,0 l/m W-SW 40,5 km/h (6 Bft)
06.03.2010 07:00 -3,2 C 86 % 1013,6 hPa 0,0 l/m W-SW 33,7 km/h (5 Bft)
06.03.2010 08:00 -3,6 C 91 % 1013,7 hPa 0,8 l/m SW 34,5 km/h (5 Bft)
06.03.2010 09:00 -3,3 C 93 % 1014,1 hPa 1,0 l/m W-SW 28,8 km/h (5 Bft)
06.03.2010 10:00 -2,4 C 90 % 1014,4 hPa 1,0 l/m W-SW 27,8 km/h (4 Bft)
06.03.2010 11:00 -0,7 C 85 % 1015,2 hPa 0,0 l/m W 22,1 km/h (4 Bft)
06.03.2010 12:00 -0,4 C 82 % 1016,1 hPa 0,0 l/m W 20,6 km/h (4 Bft)
06.03.2010 13:00 0,1 C 79 % 1016,3 hPa 0,2 l/m NW 17,6 km/h (3 Bft)
06.03.2010 14:00 -0,2 C 79 % 1016,5 hPa 0,0 l/m W-NW 19,7 km/h (3 Bft)
06.03.2010 15:00 -0,5 C 83 % 1016,7 hPa 0,4 l/m W-NW 18,6 km/h (3 Bft)
06.03.2010 16:00 -1,0 C 81 % 1017,4 hPa 0,2 l/m NW 10,1 km/h (2 Bft)
06.03.2010 17:00 -1,3 C 82 % 1017,9 hPa 0,0 l/m NW 6,6 km/h (2 Bft)
06.03.2010 18:00 -2,4 C 87 % 1019,1 hPa 0,0 l/m N 20,1 km/h (4 Bft)
06.03.2010 19:00 -3,7 C 84 % 1020,2 hPa 0,0 l/m N-NO 17,3 km/h (3 Bft)
06.03.2010 20:00 -4,3 C 84 % 1021,0 hPa 0,0 l/m N-NO 20,4 km/h (4 Bft)
06.03.2010 21:00 -4,7 C 83 % 1021,8 hPa 0,0 l/m NO 15,6 km/h (3 Bft)
06.03.2010 22:00 -4,9 C 85 % 1022,3 hPa 0,0 l/m NO 14,2 km/h (3 Bft)
06.03.2010 23:00 -5,2 C 86 % 1022,8 hPa 0,0 l/m O-NO 15,4 km/h (3 Bft)
07.03.2010 00:00 -5,5 C 87 % 1023,4 hPa 0,0 l/m NO 18,0 km/h (3 Bft)
07.03.2010 01:00 -5,8 C 88 % 1024,0 hPa 0,0 l/m O-NO 17,3 km/h (3 Bft)
07.03.2010 02:00 -5,9 C 88 % 1024,2 hPa 0,0 l/m NO 17,3 km/h (3 Bft)
07.03.2010 03:00 -5,9 C 88 % 1024,4 hPa 0,0 l/m N-NO 15,6 km/h (3 Bft)
07.03.2010 04:00 -6,0 C 88 % 1024,5 hPa 0,0 l/m NO 16,9 km/h (3 Bft)
07.03.2010 05:00 -6,0 C 88 % 1024,8 hPa 0,0 l/m O-NO 17,2 km/h (3 Bft)
07.03.2010 06:00 -5,9 C 88 % 1024,9 hPa 0,0 l/m O-NO 17,0 km/h (3 Bft)
07.03.2010 07:00 -6,0 C 87 % 1025,5 hPa 0,0 l/m O 24,0 km/h (4 Bft)
07.03.2010 08:00 -5,9 C 85 % 1026,0 hPa 0,0 l/m O 24,9 km/h (4 Bft)
07.03.2010 09:00 -5,6 C 82 % 1026,3 hPa 0,0 l/m O 26,8 km/h (4 Bft)
07.03.2010 10:00 -5,0 C 79 % 1026,4 hPa 0,0 l/m NO 27,0 km/h (4 Bft)
07.03.2010 11:00 -4,1 C 73 % 1026,5 hPa 0,0 l/m O 31,4 km/h (5 Bft)
07.03.2010 12:00 -3,2 C 68 % 1026,2 hPa 0,0 l/m O 33,1 km/h (5 Bft)
07.03.2010 13:00 -2,5 C 63 % 1025,8 hPa 0,0 l/m O 35,1 km/h (5 Bft)
07.03.2010 14:00 -2,0 C 61 % 1025,5 hPa 0,0 l/m O-NO 32,3 km/h (5 Bft)
07.03.2010 15:00 -2,1 C 58 % 1025,5 hPa 0,0 l/m O 33,4 km/h (5 Bft)
07.03.2010 16:00 -2,4 C 58 % 1025,0 hPa 0,0 l/m O 32,5 km/h (5 Bft)
07.03.2010 17:00 -3,2 C 60 % 1024,7 hPa 0,0 l/m O-NO 31,3 km/h (5 Bft)
07.03.2010 18:00 -4,0 C 62 % 1025,1 hPa 0,0 l/m O-NO 29,1 km/h (5 Bft)
07.03.2010 19:00 -4,7 C 67 % 1025,1 hPa 0,0 l/m NO 26,7 km/h (4 Bft)
07.03.2010 20:00 -5,2 C 71 % 1025,0 hPa 0,0 l/m O-NO 26,4 km/h (4 Bft)
07.03.2010 21:00 -5,7 C 74 % 1025,0 hPa 0,0 l/m NO 25,7 km/h (4 Bft)
07.03.2010 22:00 -6,2 C 74 % 1025,2 hPa 0,0 l/m NO 23,6 km/h (4 Bft)
07.03.2010 23:00 -6,5 C 76 % 1025,2 hPa 0,0 l/m O-NO 19,7 km/h (3 Bft)
Min-Datum _ 07.03.10 01.03.10 01.03.10 - - 01.03.10
_ Min-Zeit 23:45 16:05 00:00 - - 18:10
Minimum _ -6,7 C 37 % 1004,2 hPa - - 0,0 km/h (0 Bft)
Max-Datum _ 01.03.10 03.03.10 07.03.10 02.03.10 - 06.03.10
_ Max-Zeit 16:05 08:55 10:50 19:05 - 06:05
Maximum _ 10,4 C 98 % 1026,6 hPa 1,4 l/m - 56,3 km/h
W-SW (7 Bft)
Durchschnitt _ -0,0 C 73 % 1018,0 hPa #8,0 l/m O-NO 16,2 km/h (3 Bft)